Ascension Island, Ascension Island

3:47 AM GMT on October 21, 2014 (GMT +0000)
Ascension Aux Air Base / Wideawake Field | Change Station
CLOSE
Current Station
Airport
Location: Ascension Island,
Elevation: 259 ft
Nearby Weather Stations

Elev 259 ft 7.97 °S, 14.41 °W | Updated 57 minutes ago

Rain Showers
Showers Rain
72 °F
Feels Like 72 °F
N
10
Wind Variable Wind from ESE

Today
High -- | Low -- °F
--% Chance of Precip.
Yesterday
High -- | Low -- °F
Precip. -- in
6:32 AM 6:51 PM
Waning Crescent, 7% visible
Pressure 29.92 in
Visibility 1.9 miles
Clouds Scattered Clouds 1000 ft
Mostly Cloudy 2000 ft
Dew Point 68 °F
Humidity 88%
Rainfall 0.00 in
Snow Depth Not available.
UV 0 out of 12
Pollen Not available.
Air Quality Not available.
Flu Activity Not available.
METAR FHAW 210250Z 12009KT 3000 SHRA SCT010 BKN020 22/20 Q1013 YLO1 TEMPO 9999 NSW FEW010 SCT020 WHT

More Conditions Fewer Conditions

Pressure 29.92 in
Visibility 1.9 miles
Clouds Scattered Clouds 1000 ft
Mostly Cloudy 2000 ft
Dew Point 68 °F
Humidity 88%
Rainfall 0.00 in
Snow Depth Not available.
UV 0 out of 12
Pollen Not available.
Air Quality Not available.
Flu Activity Not available.
METAR FHAW 210250Z 12009KT 3000 SHRA SCT010 BKN020 22/20 Q1013 YLO1 TEMPO 9999 NSW FEW010 SCT020 WHT

More Conditions Fewer Conditions

10-Day Weather Forecast

Almanac

Astronomy

Oct. 21, 2014 Rise Set
Actual Time 6:32 AM GMT 6:51 PM GMT
Civil Twilight 6:11 AM GMT 7:13 PM GMT
Nautical Twilight 5:46 AM GMT 7:37 PM GMT
Astronomical Twilight 5:21 AM GMT 8:02 PM GMT
Moon 4:44 AM GMT 5:07 PM GMT
Length of Visible Light 13h 01m
Length of Day
12h 19m
Tomorrow will be 0m 25s longer.
Waning Crescent, 7% of the Moon is Illuminated
Oct 20
Waning Crescent
Oct 23
New
Oct 30
First Quarter
Nov 6
Full
Nov 14
Last Quarter

Yesterday's Extremes

Country Highs Country Lows

Community

WunderPhotos

Upload Photos

1,763,594 photos uploaded!

Nearby

Snow Depth

Not available.

Earthquake Activity

City Distance Mag. Time & Date
No recent earthquake activity has been reported nearby.
Minimum magnitude displayed is 2.5.

Coastal Water Temperatures

Place Temperature
No Stations Reporting

Nearby Weather Stations